Decoded Metar for VOBM ( in ) (IATA:) | Meteo·Mobile Aviation Weather
aviador You're here:

VOBM Decoded Metar

in
Report Time2018-12-11 02:00:00
UTC Time2018-12-11 02:52:46
Flight Rules mvfr MVFR
WindCalm
Visibility6000 m
Phenomena:N/A
Clouds:N/A
Expected CloudBase > 1,200 ft AGL from Temp-Dew spread
CeilingNone
Temp15°C
Dew Point12°C (82% RH)
QNH1017 hPa
Raw Report
METAR VOBM 110200Z 00000KT 6000 NSC 15/12 Q1017=####018000094####
SAIN90 VAAH 110200

Extra information for VOBM:More info

Social comments